Tiempo atmosférico en la estación meteorológica de Muñotello, Ávila (1178 m.)



Fecha
DESCASC
Temp. máxima en grados centígrados (hora)
DESCASC
Temp. mínima en grados centígrados (hora)
DESCASC
Temp. media en grados centígrados
DESCASC
Racha de viento máxima en m/sg (hora)
DESCASC
Velocidad máxima media en intervalos de 10 minutos(hora)
DESCASC
Precipitaciones diarias en mm
DESCASC
Precipitaciones de 00:00 a 06:00 en mm
DESCASC
Precipitaciones de 06:00 a 12:00 en mm
DESCASC
Precipitaciones de 12:00 a 18:00 en mm
DESCASC
Precipitaciones de 18:00 a 24:00 en mm
DESCASC
16-06-2019 25.6 (17:30) 8.1 (06:30) 16.9 9.44 (11:00) 6.39 (10:20) 0 0 0 0 0
15-06-2019 21.4 (16:50) 6.8 (02:50) 14.1 10.28 (00:10) 6.94 (00:10) 0 0 0 0 0
14-06-2019 20.3 (15:50) 7.6 (06:30) 13.9 13.61 (15:30) 8.61 (18:00) 0 0 0 0 0
13-06-2019 22.8 (16:10) 7 (00:00) 14.9 13.61 (13:50) 7.22 (17:50) 0 0 0 0 0
12-06-2019 21.2 (18:50) 2.3 (00:00) 11.8 9.44 (13:10) 6.11 (13:10) 0 0 0 0 0
11-06-2019 15.9 (17:50) 8.2 (00:00) 12 11.39 (16:30) 6.94 (03:10) 0 0 0 0 0
10-06-2019 20.4 (17:40) 7.4 (00:00) 13.9 9.17 (17:50) 5.56 (19:10) 0 0 0 0 0
09-06-2019 21.2 (16:40) 7.3 (00:00) 14.3 12.22 (14:30) 8.89 (13:30) 0 0 0 0 0
08-06-2019 22.4 (17:40) 3 (00:00) 12.7 10.83 (11:50) 6.67 (18:00) 0 0 0 0 0
07-06-2019 16 (17:20) 4.5 (00:00) 10.3 11.67 (04:50) 7.78 (04:40) 1.4 1.2 0.2 0 0
06-06-2019 18.9 (16:40) 2.6 (00:00) 10.7 20.56 (18:40) 10.83 (18:50) 0 0 0 0 0
05-06-2019 15.3 (15:50) 6.2 (00:00) 10.8 12.78 (16:10) 7.5 (10:40) 0 0 0 0 0
04-06-2019 23.2 (14:30) 12.1 (00:00) 17.7 13.33 (17:00) 8.89 (16:30) 0 0 0 0 0
03-06-2019 28.2 (16:50) 14 (00:00) 21.1 15 (14:50) 10 (15:40) 0 0 0 0 0
02-06-2019 29.3 (17:10) 14.8 (00:00) 22 12.22 (17:20) 8.33 (17:20) 0 0 0 0 0
01-06-2019 30.1 (17:30) 10.5 (00:00) 20.3 9.44 (23:30) 6.11 (22:30) 0 0 0 0 0
31-05-2019 29.3 (16:40) 12.8 (00:00) 21 7.78 (19:30) 4.72 (17:00) 0 0 0 0 0
30-05-2019 26 (17:50) 6.4 (00:00) 16.2 7.5 (16:50) 4.17 (15:00) 0 0 0 0 0
29-05-2019 20.9 (17:20) 4.5 (00:00) 12.7 7.78 (14:50) 5 (19:40) 0 0 0 0 0
28-05-2019 20.6 (16:50) 8.2 (00:00) 14.4 9.44 (14:30) 6.11 (17:00) 0 0 0 0 0
27-05-2019 22.8 (16:30) 10 (00:00) 16.4 9.44 (16:30) 5.56 (16:00) 0 0 0 0 0
26-05-2019 21.8 (18:20) 7 (00:00) 14.4 10.28 (17:30) 6.11 (16:40) 0 0 0 0 0
25-05-2019 18.9 (18:00) 7.5 (00:00) 13.2 8.89 (18:40) 5.83 (20:30) 0 0 0 0 0
24-05-2019 19.2 (17:10) 9.2 (00:00) 14.2 10.83 (17:20) 6.67 (17:50) 0 0 0 0 0
23-05-2019 23.7 (16:00) 11.1 (00:00) 17.4 16.67 (16:00) 8.61 (13:10) 0 0 0 0 0
22-05-2019 24.6 (16:20) 7.1 (00:00) 15.9 9.17 (23:00) 6.39 (22:50) 0 0 0 0 0

Gráficas

Temp. máximas Temp. mínimas Temp. medias Precipitaciones Rachas de viento máximas Velocidades máximas media en intervalos de 10 minutos

Datos horarios

Fecha y hora oficial Temperatura (ºC) Velocidad del viento (km/h) Dirección del viento Racha (km/h) Dirección de racha Precipitación (mm) Presión (hPa) Tendencia (hPa) Humedad (%)
2019-06-20 23:00:00 17.1 10 Oeste 21 Oeste 0 -- -- 58
2019-06-20 22:00:00 17.7 10 Noroeste 15 Norte 0 -- -- 56
2019-06-20 21:00:00 18.9 11 Noroeste 24 Oeste 0 -- -- 52
2019-06-20 20:00:00 21.7 16 Oeste 31 Oeste 0 -- -- 39
2019-06-20 19:00:00 20.8 5 Norte 24 Noroeste 0 -- -- 47
2019-06-20 18:00:00 21.6 9 Oeste 27 Oeste 0 -- -- 43
2019-06-20 17:00:00 21.1 13 Oeste 22 Oeste 0 -- -- 45
2019-06-20 16:00:00 20.9 3 Noroeste 15 Sudeste 0 -- -- 46
2019-06-20 15:00:00 20.5 7 Sur 15 Sudoeste 0 -- -- 47
2019-06-20 14:00:00 21.6 4 Noroeste 14 Oeste 0 -- -- 43
2019-06-20 13:00:00 19.6 6 Sudoeste 17 Norte 0 -- -- 49
2019-06-20 12:00:00 18.6 5 Norte 15 Nordeste 0 -- -- 51
2019-06-20 11:00:00 17.9 4 Nordeste 17 Nordeste 0 -- -- 55
2019-06-20 10:00:00 16.9 8 Nordeste 17 Este 0 -- -- 59
2019-06-20 09:00:00 16 6 Este 9 Este 0 -- -- 68
2019-06-20 08:00:00 14.3 4 Este 6 Este 0 -- -- 76
2019-06-20 07:00:00 13.7 2 Noroeste 8 Oeste 0 -- -- 78
2019-06-20 06:00:00 13.9 3 Oeste 9 Oeste 0 -- -- 77
2019-06-20 05:00:00 14.1 6 Oeste 13 Oeste 0 -- -- 76
2019-06-20 04:00:00 14.2 5 Oeste 11 Oeste 0 -- -- 75
2019-06-20 03:00:00 13.8 7 Oeste 14 Oeste 0 -- -- 74
2019-06-20 02:00:00 13.4 3 Oeste 10 Nordeste 0 -- -- 70
2019-06-20 01:00:00 14.7 4 Sudoeste 22 Oeste 0 -- -- 65
2019-06-20 00:00:00 15 5 Oeste 13 Oeste 0 -- -- 64
2019-06-19 23:00:00 15.7 8 Oeste 20 Oeste 0 -- -- 59
2019-06-19 22:00:00 17.3 13 Oeste 31 Oeste 0 -- -- 51
2019-06-19 21:00:00 18.8 23 Oeste 35 Oeste 0 -- -- 48
2019-06-19 20:00:00 19.5 25 Oeste 40 Oeste 0 -- -- 47
2019-06-19 19:00:00 21.1 26 Oeste 45 Oeste 0 -- -- 44
2019-06-19 18:00:00 21.9 31 Oeste 48 Sudoeste 0 -- -- 43
2019-06-19 17:00:00 22.4 29 Oeste 45 Oeste 0 -- -- 41
2019-06-19 16:00:00 21.9 30 Oeste 45 Oeste 0 -- -- 43
2019-06-19 15:00:00 22.1 24 Oeste 39 Oeste 0 -- -- 43
2019-06-19 14:00:00 21.2 23 Oeste 37 Oeste 0 -- -- 48
2019-06-19 13:00:00 19.7 15 Noroeste 33 Oeste 0 -- -- 52
2019-06-19 12:00:00 18.3 17 Oeste 27 Oeste 0 -- -- 56
2019-06-19 11:00:00 16.9 17 Oeste 35 Oeste 0 -- -- 60
2019-06-19 10:00:00 16.2 20 Oeste 28 Oeste 0 -- -- 63
2019-06-19 09:00:00 16.5 0 Calma 6 Noroeste 0 -- -- 62
2019-06-19 08:00:00 13.7 0 Calma 6 Norte 0 -- -- 72
2019-06-19 07:00:00 10.9 3 Sudeste 14 Sudoeste 0 -- -- 81
2019-06-19 06:00:00 11.6 8 Sudoeste 19 Sudoeste 0 -- -- 78
2019-06-19 05:00:00 11.7 2 Sudeste 12 Oeste 0 -- -- 79
2019-06-19 04:00:00 12.3 10 Sudoeste 21 Oeste 0 -- -- 77
2019-06-19 03:00:00 13.2 13 Sudoeste 27 Oeste 0 -- -- 74
2019-06-19 02:00:00 14.5 17 Oeste 25 Oeste 0 -- -- 74
2019-06-19 01:00:00 14.8 6 Oeste 17 Sudoeste 0 -- -- 72
2019-06-19 00:00:00 15.4 10 Oeste 14 Oeste 0 -- -- 69
2019-06-18 23:00:00 16.7 6 Oeste 22 Sur 0 -- -- 64
2019-06-18 22:00:00 18.1 9 Sur 23 Sudoeste 0 -- -- 52
2019-06-18 21:00:00 19.5 13 Sudoeste 30 Sur 0 -- -- 46
2019-06-18 20:00:00 21 10 Este 33 Sudoeste 0 -- -- 41
2019-06-18 19:00:00 22.1 15 Sur 36 Sudoeste 0 -- -- 40
2019-06-18 18:00:00 23.1 17 Sur 40 Sur 0 -- -- 38
2019-06-18 17:00:00 23.5 19 Sudoeste 47 Sur 0 -- -- 33
2019-06-18 16:00:00 23.5 22 Sur 46 Sudeste 0 -- -- 28
2019-06-18 15:00:00 23.5 22 Sur 49 Sur 0 -- -- 24
2019-06-18 14:00:00 23.5 19 Sur 60 Sudoeste 0 -- -- 18
2019-06-18 13:00:00 23.5 14 Sur 48 Sudoeste 0 -- -- 17
2019-06-18 12:00:00 23.1 10 Sur 33 Sudeste 0 -- -- 20
2019-06-18 11:00:00 21.7 8 Sudeste 24 Sudeste 0 -- -- 26
2019-06-18 10:00:00 20.8 17 Sudoeste 34 Sudoeste 0 -- -- 25
2019-06-18 09:00:00 18.4 11 Sudoeste 23 Sur 0 -- -- 34
2019-06-18 08:00:00 16 6 Oeste 14 Sudoeste 0 -- -- 35
2019-06-18 07:00:00 13.8 7 Oeste 13 Oeste 0 -- -- 40
2019-06-18 06:00:00 14.6 3 Noroeste 14 Norte 0 -- -- 37
2019-06-18 05:00:00 14.1 7 Sudoeste 12 Sudoeste 0 -- -- 38
2019-06-18 04:00:00 15.4 0 Calma 8 Oeste 0 -- -- 36
2019-06-18 03:00:00 15.9 6 Oeste 10 Oeste 0 -- -- 35
2019-06-18 02:00:00 17 5 Noroeste 13 Noroeste 0 -- -- 34
2019-06-18 01:00:00 17.6 2 Sudeste 15 Sudoeste 0 -- -- 34
2019-06-18 00:00:00 19.7 13 Sudoeste 22 Oeste 0 -- -- 26
2019-06-17 23:00:00 19.5 5 Sudoeste 11 Sur 0 -- -- 31
2019-06-17 22:00:00 20.9 2 Sudoeste 12 Sudoeste 0 -- -- 28
2019-06-17 21:00:00 22.1 7 Sudoeste 24 Sur 0 -- -- 25
2019-06-17 20:00:00 23.1 12 Sur 31 Sudeste 0 -- -- 24
2019-06-17 19:00:00 23.4 19 Sudeste 31 Sudeste 0 -- -- 26
2019-06-17 18:00:00 23.3 19 Sur 35 Sudeste 0 -- -- 28
2019-06-17 17:00:00 23.9 14 Sudeste 36 Sur 0 -- -- 25
2019-06-17 16:00:00 25.1 23 Sudeste 41 Sudeste 0 -- -- 23
2019-06-17 15:00:00 24.8 22 Sudeste 36 Sur 0 -- -- 19
2019-06-17 14:00:00 24 24 Sudeste 41 Sudeste 0 -- -- 23
2019-06-17 13:00:00 23.7 27 Sudeste 42 Sudeste 0 -- -- 26
2019-06-17 12:00:00 23.6 21 Sudeste 43 Sudeste 0 -- -- 29
2019-06-17 11:00:00 22.7 18 Sudeste 29 Sudeste 0 -- -- 30
2019-06-17 10:00:00 20.2 3 Norte 8 Noroeste 0 -- -- 34
2019-06-17 09:00:00 18.5 3 Este 7 Este 0 -- -- 36
2019-06-17 08:00:00 14.5 3 Sudeste 8 Oeste 0 -- -- 43
2019-06-17 07:00:00 11.6 0 Calma 5 Oeste 0 -- -- 43
2019-06-17 06:00:00 11.5 2 Oeste 6 Oeste 0 -- -- 38
2019-06-17 05:00:00 11.5 4 Sudeste 8 Sur 0 -- -- 39
2019-06-17 04:00:00 12.4 0 Calma 4 Sudeste 0 -- -- 36
2019-06-17 03:00:00 13 2 Sudeste 9 Sur 0 -- -- 34
2019-06-17 02:00:00 13.9 7 Sur 10 Sur 0 -- -- 32
2019-06-17 01:00:00 15 8 Sur 11 Sur 0 -- -- 36
2019-06-17 00:00:00 16.1 7 Sur 11 Sur 0 -- -- 36
2019-06-16 23:00:00 16.9 4 Este 8 Este 0 -- -- 38
2019-06-16 22:00:00 19 3 Sur 28 Oeste 0 -- -- 34
2019-06-16 21:00:00 21 12 Oeste 31 Oeste 0 -- -- 30
2019-06-16 20:00:00 22.6 15 Sur 34 Sur 0 -- -- 27
2019-06-16 19:00:00 25.2 10 Sur 30 Sudeste 0 -- -- 23
2019-06-16 18:00:00 25.2 5 Oeste 22 Sudoeste 0 -- -- 24
2019-06-16 17:00:00 25.4 13 Oeste 24 Oeste 0 -- -- 24
2019-06-16 16:00:00 24 9 Norte 24 Nordeste 0 -- -- 24
2019-06-16 15:00:00 24.3 8 Sur 29 Este 0 -- -- 24
2019-06-16 14:00:00 22.7 16 Sudeste 29 Sur 0 -- -- 26
2019-06-16 13:00:00 22.7 15 Sudeste 26 Sudeste 0 -- -- 23
2019-06-16 12:00:00 21.6 14 Sur 33 Sur 0 -- -- 26
2019-06-16 11:00:00 20.9 18 Sur 34 Sur 0 -- -- 29
2019-06-16 10:00:00 17.4 10 Este 23 Este 0 -- -- 38
2019-06-16 09:00:00 12.5 6 Noroeste 15 Oeste 0 -- -- 46
2019-06-16 08:00:00 10.6 3 Norte 8 Sudoeste 0 -- -- 51
2019-06-16 07:00:00 8.4 0 Calma 11 Sudoeste 0 -- -- 55
2019-06-16 06:00:00 9 3 Sur 12 Sur 0 -- -- 54
2019-06-16 05:00:00 9.4 0 Calma 4 Oeste 0 -- -- 51
2019-06-16 04:00:00 9.5 2 Sur 7 Sur 0 -- -- 50
2019-06-16 03:00:00 10.1 0 Calma 4 Sur 0 -- -- 49
2019-06-16 02:00:00 10.8 0 Calma 5 Sudoeste 0 -- -- 48
2019-06-16 01:00:00 11.4 2 Sudeste 15 Sur 0 -- -- 48
2019-06-16 00:00:00 13.1 11 Sur 15 Sur 0 -- -- 43
2019-06-15 23:00:00 14.3 12 Sur 15 Sudoeste 0 -- -- 41
2019-06-15 22:00:00 16 3 Oeste 14 Norte 0 -- -- 36
2019-06-15 21:00:00 18.4 10 Noroeste 18 Noroeste 0 -- -- 34
2019-06-15 20:00:00 19.9 12 Noroeste 25 Noroeste 0 -- -- 31
2019-06-15 19:00:00 20.6 12 Oeste 30 Oeste 0 -- -- 29
2019-06-15 18:00:00 21.1 15 Oeste 27 Oeste 0 -- -- 31
2019-06-15 17:00:00 21 11 Noroeste 31 Noroeste 0 -- -- 33
2019-06-15 16:00:00 20.3 8 Norte 22 Oeste 0 -- -- 34
2019-06-15 15:00:00 19.7 8 Noroeste 33 Noroeste 0 -- -- 34
2019-06-15 14:00:00 18.1 8 Nordeste 23 Este 0 -- -- 38
2019-06-15 13:00:00 17 8 Este 15 Sur 0 -- -- 42
2019-06-15 12:00:00 15.3 7 Este 14 Sur 0 -- -- 47
2019-06-15 11:00:00 13.2 5 Nordeste 10 Norte 0 -- -- 52
2019-06-15 10:00:00 11.8 5 Nordeste 10 Nordeste 0 -- -- 57
2019-06-15 09:00:00 11.2 2 Oeste 7 Noroeste 0 -- -- 61
2019-06-15 08:00:00 8.2 6 Noroeste 10 Noroeste 0 -- -- 74
2019-06-15 07:00:00 7.7 5 Noroeste 12 Noroeste 0 -- -- 78
2019-06-15 06:00:00 7.7 9 Noroeste 15 Oeste 0 -- -- 79
2019-06-15 05:00:00 7.6 11 Noroeste 20 Oeste 0 -- -- 80
2019-06-15 04:00:00 7.9 14 Oeste 21 Oeste 0 -- -- 78
2019-06-15 03:00:00 6.9 13 Oeste 18 Oeste 0 -- -- 78
2019-06-15 02:00:00 8.1 14 Oeste 29 Oeste 0 -- -- 70
2019-06-15 01:00:00 8.7 16 Oeste 37 Oeste 0 -- -- 67
2019-06-15 00:00:00 10.1 22 Oeste 37 Oeste 0 -- -- 60
2019-06-14 23:00:00 11.5 25 Sudoeste 42 Sudoeste 0 -- -- 53
2019-06-14 22:00:00 12.9 24 Sudoeste 36 Sudoeste 0 -- -- 47
2019-06-14 21:00:00 15.1 21 Oeste 39 Oeste 0 -- -- 40
2019-06-14 20:00:00 17 24 Oeste 42 Oeste 0 -- -- 38
2019-06-14 19:00:00 17.5 28 Oeste 48 Oeste 0 -- -- 37
2019-06-14 18:00:00 18.3 31 Oeste 44 Oeste 0 -- -- 34
2019-06-14 17:00:00 19.5 25 Oeste 49 Oeste 0 -- -- 27
2019-06-14 16:00:00 20.3 11 Sur 49 Sudeste 0 -- -- 28
2019-06-14 15:00:00 19 25 Sudeste 42 Sudeste 0 -- -- 30
2019-06-14 14:00:00 20 17 Sur 45 Sudeste 0 -- -- 30
2019-06-14 13:00:00 18.8 25 Sur 42 Sur 0 -- -- 36
2019-06-14 12:00:00 19.4 12 Sur 26 Sudoeste 0 -- -- 31
2019-06-14 11:00:00 17.6 13 Este 32 Este 0 -- -- 37
2019-06-14 10:00:00 15.7 5 Norte 10 Norte 0 -- -- 32
2019-06-14 09:00:00 14.6 3 Noroeste 15 Oeste 0 -- -- 39
2019-06-14 08:00:00 11.8 4 Sur 30 Oeste 0 -- -- 50
2019-06-14 07:00:00 9.6 20 Oeste 28 Sudoeste 0 -- -- 54
2019-06-14 06:00:00 7.8 4 Sudoeste 14 Sur 0 -- -- 57
2019-06-14 05:00:00 9.3 3 Sudoeste 12 Oeste 0 -- -- 52
2019-06-14 04:00:00 9.9 5 Sudoeste 8 Sur 0 -- -- 49
2019-06-14 03:00:00 10.7 4 Sudeste 11 Sur 0 -- -- 46
2019-06-14 02:00:00 12.2 5 Oeste 15 Oeste 0 -- -- 43
2019-06-14 01:00:00 12.3 2 Nordeste 13 Sudoeste 0 -- -- 37
2019-06-14 00:00:00 15 9 Sudoeste 22 Sudoeste 0 -- -- 31
2019-06-13 23:00:00 15 10 Sudoeste 23 Sudoeste 0 -- -- 28
2019-06-13 22:00:00 17 4 Sudoeste 31 Sur 0 -- -- 24
2019-06-13 21:00:00 18.4 15 Sur 35 Sudeste 0 -- -- 26
2019-06-13 20:00:00 19.5 18 Sudeste 39 Sudeste 0 -- -- 24
2019-06-13 19:00:00 20.7 20 Sudeste 39 Sur 0 -- -- 22
2019-06-13 18:00:00 21.2 24 Sudeste 40 Sudeste 0 -- -- 23
2019-06-13 17:00:00 22.1 24 Sudeste 43 Este 0 -- -- 22
2019-06-13 16:00:00 22.4 14 Sur 37 Sudeste 0 -- -- 20
2019-06-13 15:00:00 21.3 15 Sudeste 38 Sur 0 -- -- 25
2019-06-13 14:00:00 20.5 22 Sudeste 49 Sudeste 0 -- -- 26
2019-06-13 13:00:00 19.9 17 Sudeste 48 Sudeste 0 -- -- 28
2019-06-13 12:00:00 19.3 21 Sudeste 42 Sudeste 0 -- -- 24
2019-06-13 11:00:00 19.2 21 Sur 45 Sur 0 -- -- 26
2019-06-13 10:00:00 17.7 7 Noroeste 18 Sur 0 -- -- 27
2019-06-13 09:00:00 12.6 3 Nordeste 9 Nordeste 0 -- -- 36
2019-06-13 08:00:00 9.7 0 Calma 5 Este 0 -- -- 42
2019-06-13 07:00:00 7 0 Calma 10 Oeste 0 -- -- 47
2019-06-13 06:00:00 10 8 Sur 17 Sur 0 -- -- 38
2019-06-13 05:00:00 8.9 4 Sur 10 Sur 0 -- -- 42
2019-06-13 04:00:00 8.2 2 Oeste 6 Oeste 0 -- -- 45
2019-06-13 03:00:00 8.5 2 Oeste 6 Sur 0 -- -- 44
2019-06-13 02:00:00 9.5 4 Sudeste 14 Sur 0 -- -- 43
2019-06-13 01:00:00 10.4 4 Sudoeste 9 Sur 0 -- -- 41
2019-06-13 00:00:00 11.1 2 Sudeste 11 Sudoeste 0 -- -- 41
2019-06-12 23:00:00 13.1 0 Calma 17 Sudoeste 0 -- -- 36
2019-06-12 22:00:00 15.4 11 Sudoeste 18 Sudoeste 0 -- -- 31
2019-06-12 21:00:00 18.4 11 Oeste 30 Sudoeste 0 -- -- 27
2019-06-12 20:00:00 20 10 Oeste 23 Sudoeste 0 -- -- 25
2019-06-12 19:00:00 21.2 11 Sudoeste 23 Sudoeste 0 -- -- 25
2019-06-12 18:00:00 19.2 9 Este 20 Este 0 -- -- 29
2019-06-12 17:00:00 19.1 3 Oeste 15 Sudeste 0 -- -- 29
2019-06-12 16:00:00 19.9 4 Sudoeste 27 Oeste 0 -- -- 28
2019-06-12 15:00:00 19.1 9 Noroeste 22 Noroeste 0 -- -- 27
2019-06-12 14:00:00 17.9 13 Noroeste 34 Oeste 0 -- -- 28
2019-06-12 13:00:00 17.4 18 Oeste 32 Oeste 0 -- -- 27
2019-06-12 12:00:00 15.3 5 Nordeste 12 Este 0 -- -- 37
2019-06-12 11:00:00 12.1 5 Nordeste 12 Nordeste 0 -- -- 49
2019-06-12 10:00:00 10.3 6 Nordeste 11 Nordeste 0 -- -- 54
2019-06-12 09:00:00 7.8 3 Norte 6 Norte 0 -- -- 57
2019-06-12 08:00:00 5.9 0 Calma 3 Oeste 0 -- -- 63
2019-06-12 07:00:00 2.3 0 Calma 3 Noroeste 0 -- -- 73
2019-06-12 06:00:00 3.6 0 Calma 3 Sur 0 -- -- 67
2019-06-12 05:00:00 5.3 5 Sur 10 Sur 0 -- -- 62
2019-06-12 04:00:00 5.5 5 Sur 9 Sudoeste 0 -- -- 60
2019-06-12 03:00:00 6 4 Sudoeste 9 Sur 0 -- -- 56
2019-06-12 02:00:00 6.9 8 Sur 13 Sur 0 -- -- 53
2019-06-12 01:00:00 7.9 4 Sudoeste 17 Sur 0 -- -- 49
2019-06-12 00:00:00 8.9 11 Sur 14 Oeste 0 -- -- 45
2019-06-11 23:00:00 10 7 Oeste 14 Noroeste 0 -- -- 42
2019-06-11 22:00:00 10.9 7 Noroeste 18 Norte 0 -- -- 38
2019-06-11 21:00:00 13.5 17 Noroeste 31 Noroeste 0 -- -- 31
2019-06-11 20:00:00 14.6 18 Noroeste 36 Noroeste 0 -- -- 29
2019-06-11 19:00:00 15.4 19 Noroeste 40 Norte 0 -- -- 26
2019-06-11 18:00:00 15.6 21 Noroeste 36 Norte 0 -- -- 28
2019-06-11 17:00:00 15.4 23 Norte 41 Noroeste 0 -- -- 27
2019-06-11 16:00:00 14.8 18 Norte 37 Norte 0 -- -- 27
2019-06-11 15:00:00 14.2 15 Noroeste 33 Norte 0 -- -- 39
2019-06-11 14:00:00 13.4 17 Noroeste 33 Norte 0 -- -- 43
2019-06-11 13:00:00 11.2 13 Norte 26 Noroeste 0 -- -- 56
2019-06-11 12:00:00 9.1 9 Norte 27 Norte 0 -- -- 65
2019-06-11 11:00:00 8.4 13 Norte 23 Norte 0 -- -- 70
2019-06-11 10:00:00 8.8 8 Norte 21 Norte 0 -- -- 72
2019-06-11 09:00:00 8.9 12 Norte 19 Norte 0 -- -- 71
2019-06-11 08:00:00 8.9 5 Noroeste 16 Oeste 0 -- -- 71
2019-06-11 07:00:00 9 3 Oeste 20 Oeste 0 -- -- 71
2019-06-11 06:00:00 9.3 11 Oeste 26 Oeste 0 -- -- 71
2019-06-11 05:00:00 9.7 13 Oeste 27 Oeste 0 -- -- 67
2019-06-11 04:00:00 10.5 15 Oeste 34 Oeste 0 -- -- 65
2019-06-11 03:00:00 11.6 21 Oeste 34 Oeste 0 -- -- 62
2019-06-11 02:00:00 12.1 14 Oeste 28 Oeste 0 -- -- 59
2019-06-11 01:00:00 12.9 15 Oeste 31 Oeste 0 -- -- 51
2019-06-11 00:00:00 13.6 12 Oeste 33 Oeste 0 -- -- 37
2019-06-10 23:00:00 14.4 17 Sudoeste 28 Sudoeste 0 -- -- 29
2019-06-10 22:00:00 15.2 11 Oeste 24 Oeste 0 -- -- 31
2019-06-10 21:00:00 18.3 14 Oeste 28 Oeste 0 -- -- 32
2019-06-10 20:00:00 19.5 18 Noroeste 31 Oeste 0 -- -- 29
2019-06-10 19:00:00 20.3 17 Noroeste 30 Oeste 0 -- -- 28
2019-06-10 18:00:00 20 17 Noroeste 33 Oeste 0 -- -- 29
2019-06-10 17:00:00 19.9 17 Noroeste 30 Noroeste 0 -- -- 30
2019-06-10 16:00:00 19.5 14 Noroeste 28 Noroeste 0 -- -- 29
2019-06-10 15:00:00 19.1 10 Oeste 24 Oeste 0 -- -- 33
2019-06-10 14:00:00 18.1 13 Noroeste 21 Noroeste 0 -- -- 36
2019-06-10 13:00:00 17.4 6 Noroeste 20 Noroeste 0 -- -- 42
2019-06-10 12:00:00 15.9 9 Oeste 19 Norte 0 -- -- 48
2019-06-10 11:00:00 15.7 6 Nordeste 16 Nordeste 0 -- -- 51
2019-06-10 10:00:00 14.5 7 Este 11 Este 0 -- -- 56
2019-06-10 09:00:00 13.1 0 Calma 4 Nordeste 0 -- -- 61
2019-06-10 08:00:00 11.2 2 Este 8 Oeste 0 -- -- 67
2019-06-10 07:00:00 8.4 2 Oeste 9 Sur 0 -- -- 77
2019-06-10 06:00:00 7.6 0 Calma 3 Este 0 -- -- 76
2019-06-10 05:00:00 8.3 3 Sudeste 13 Oeste 0 -- -- 73
2019-06-10 04:00:00 9.2 14 Oeste 22 Oeste 0 -- -- 71
2019-06-10 03:00:00 10.5 17 Oeste 30 Sudoeste 0 -- -- 65
2019-06-10 02:00:00 11.5 17 Oeste 30 Sudoeste 0 -- -- 62
2019-06-10 01:00:00 12.4 13 Sudoeste 23 Sudoeste 0 -- -- 60
2019-06-10 00:00:00 13.2 13 Oeste 24 Oeste 0 -- -- 57
2019-06-09 23:00:00 14 12 Sudoeste 18 Sudoeste 0 -- -- 51
2019-06-09 22:00:00 14.8 11 Oeste 26 Oeste 0 -- -- 44
2019-06-09 21:00:00 16.4 15 Oeste 31 Oeste 0 -- -- 41
2019-06-09 20:00:00 18.3 21 Oeste 32 Oeste 0 -- -- 37
2019-06-09 19:00:00 18.5 13 Noroeste 32 Oeste 0 -- -- 37
2019-06-09 18:00:00 20 15 Oeste 32 Oeste 0 -- -- 35
2019-06-09 17:00:00 20.5 22 Noroeste 40 Oeste 0 -- -- 32
2019-06-09 16:00:00 20.8 23 Oeste 44 Oeste 0 -- -- 32
2019-06-09 15:00:00 20.1 28 Oeste 44 Oeste 0 -- -- 30
2019-06-09 14:00:00 20 24 Oeste 41 Oeste 0 -- -- 33
2019-06-09 13:00:00 19 28 Oeste 40 Oeste 0 -- -- 27
2019-06-09 12:00:00 17.8 23 Noroeste 36 Oeste 0 -- -- 37
2019-06-09 11:00:00 16.3 21 Oeste 32 Oeste 0 -- -- 38
2019-06-09 10:00:00 15.1 17 Oeste 24 Oeste 0 -- -- 48
2019-06-09 09:00:00 13.4 8 Noroeste 15 Oeste 0 -- -- 49
2019-06-09 08:00:00 9.5 3 Sudoeste 10 Oeste 0 -- -- 58
2019-06-09 07:00:00 7.3 3 Sur 10 Sur 0 -- -- 63
2019-06-09 06:00:00 10.2 5 Sur 13 Sudoeste 0 -- -- 52
2019-06-09 05:00:00 10.4 3 Sudeste 8 Sudoeste 0 -- -- 52
2019-06-09 04:00:00 11.4 8 Sudoeste 21 Oeste 0 -- -- 49
2019-06-09 03:00:00 11.5 13 Oeste 19 Oeste 0 -- -- 51
2019-06-09 02:00:00 13.8 5 Sudoeste 18 Oeste 0 -- -- 41
2019-06-09 01:00:00 14.1 13 Oeste 20 Oeste 0 -- -- 40
2019-06-09 00:00:00 15.9 7 Sudoeste 15 Sudoeste 0 -- -- 34
2019-06-08 23:00:00 15.7 0 Calma 10 Oeste 0 -- -- 34
2019-06-08 22:00:00 17.5 5 Oeste 19 Sur 0 -- -- 30
2019-06-08 21:00:00 18.7 9 Sudeste 25 Sur 0 -- -- 29
2019-06-08 20:00:00 19.7 20 Sur 31 Sur 0 -- -- 26
2019-06-08 19:00:00 20.9 15 Sur 36 Sudeste 0 -- -- 25
2019-06-08 18:00:00 20.9 24 Sudeste 38 Sudeste 0 -- -- 26
2019-06-08 17:00:00 21.5 15 Sudeste 34 Sudeste 0 -- -- 27
2019-06-08 16:00:00 22.3 15 Sudeste 34 Sudeste 0 -- -- 26
2019-06-08 15:00:00 21.4 18 Sudeste 32 Sudeste 0 -- -- 25
2019-06-08 14:00:00 20.9 13 Sudeste 32 Este 0 -- -- 26
2019-06-08 13:00:00 20.4 16 Sudeste 37 Este 0 -- -- 31
2019-06-08 12:00:00 18.7 19 Este 39 Este 0 -- -- 33
2019-06-08 11:00:00 15.4 11 Nordeste 17 Este 0 -- -- 39
2019-06-08 10:00:00 12.2 5 Nordeste 10 Este 0 -- -- 48
2019-06-08 09:00:00 9.6 3 Nordeste 6 Norte 0 -- -- 56
2019-06-08 08:00:00 7 0 Calma 4 Oeste 0 -- -- 65
2019-06-08 07:00:00 3.3 2 Sur 5 Sur 0 -- -- 76
2019-06-08 06:00:00 4.1 2 Sur 6 Oeste 0 -- -- 72
2019-06-08 05:00:00 4.5 3 Sudeste 6 Sur 0 -- -- 70
2019-06-08 04:00:00 5.3 0 Calma 11 Sur 0 -- -- 67
2019-06-08 03:00:00 5.6 4 Sudeste 5 Sudeste 0 -- -- 66
2019-06-08 02:00:00 6.3 0 Calma 9 Sur 0 -- -- 64
2019-06-08 01:00:00 7.2 4 Sudeste 14 Sur 0 -- -- 60
2019-06-08 00:00:00 8.6 10 Sur 13 Sur 0 -- -- 56
2019-06-07 23:00:00 9.5 9 Sur 12 Sur 0 -- -- 52
2019-06-07 22:00:00 11.3 4 Oeste 14 Oeste 0 -- -- 45
2019-06-07 21:00:00 13.6 11 Noroeste 27 Oeste 0 -- -- 40
2019-06-07 20:00:00 14.9 12 Noroeste 23 Oeste 0 -- -- 37
2019-06-07 19:00:00 15.4 13 Noroeste 30 Noroeste 0 -- -- 38
2019-06-07 18:00:00 15.9 16 Oeste 28 Oeste 0 -- -- 36
2019-06-07 17:00:00 15.6 16 Noroeste 34 Oeste 0 -- -- 38
2019-06-07 16:00:00 15.3 18 Oeste 33 Noroeste 0 -- -- 40
2019-06-07 15:00:00 14.6 21 Oeste 35 Oeste 0 -- -- 44
2019-06-07 14:00:00 13.9 11 Sudoeste 32 Oeste 0 -- -- 46
2019-06-07 13:00:00 12.2 15 Oeste 29 Noroeste 0 -- -- 51
2019-06-07 12:00:00 10.1 15 Oeste 31 Oeste 0 -- -- 57
2019-06-07 11:00:00 8.4 16 Oeste 31 Oeste 0 -- -- 66
2019-06-07 10:00:00 7.1 20 Oeste 35 Oeste 0 -- -- 71
2019-06-07 09:00:00 5.6 17 Oeste 39 Oeste 0 -- -- 81
2019-06-07 08:00:00 5.1 17 Oeste 31 Oeste 0.2 -- -- 81
2019-06-07 07:00:00 4.8 15 Oeste 33 Oeste 0 -- -- 82
2019-06-07 06:00:00 5.3 20 Oeste 39 Oeste 0 -- -- 78
2019-06-07 05:00:00 4.8 21 Oeste 42 Oeste 0 -- -- 78
2019-06-07 04:00:00 6.1 17 Sudoeste 37 Oeste 0 -- -- 80
2019-06-07 03:00:00 6.7 21 Oeste 34 Oeste 0.6 -- -- 92
2019-06-07 02:00:00 7.8 13 Oeste 39 Oeste 0.6 -- -- 89
2019-06-07 01:00:00 8.1 26 Oeste 39 Oeste 0 -- -- 86
2019-06-07 00:00:00 12.3 19 Sudoeste 37 Sur 0 -- -- 70
2019-06-06 23:00:00 12 22 Sur 52 Sudeste 0 -- -- 67
2019-06-06 22:00:00 13 34 Sur 66 Sur 0 -- -- 56
2019-06-06 21:00:00 14.2 37 Sur 62 Sur 0 -- -- 48
2019-06-06 20:00:00 15.7 26 Sur 66 Sur 0 -- -- 43
2019-06-06 19:00:00 16.2 33 Sur 74 Sur 0 -- -- 40
2019-06-06 18:00:00 17.4 32 Sur 61 Sudoeste 0 -- -- 38
2019-06-06 17:00:00 18.4 22 Sur 40 Sudeste 0 -- -- 37
2019-06-06 16:00:00 17.5 30 Sudeste 53 Sudeste 0 -- -- 36
2019-06-06 15:00:00 18.2 21 Sur 51 Sudeste 0 -- -- 34
2019-06-06 14:00:00 16.5 26 Sudeste 44 Sudeste 0 -- -- 37
2019-06-06 13:00:00 15.9 26 Sudeste 42 Sudeste 0 -- -- 38
2019-06-06 12:00:00 13.8 22 Sudeste 39 Este 0 -- -- 43
2019-06-06 11:00:00 12.7 9 Oeste 18 Oeste 0 -- -- 50
2019-06-06 10:00:00 9.3 3 Noroeste 9 Norte 0 -- -- 61
2019-06-06 09:00:00 7.4 2 Norte 4 Nordeste 0 -- -- 66
2019-06-06 08:00:00 5 2 Nordeste 4 Nordeste 0 -- -- 74
2019-06-06 07:00:00 3.2 0 Calma 7 Sur 0 -- -- 80
2019-06-06 06:00:00 3.6 2 Sudoeste 10 Sudoeste 0 -- -- 77
2019-06-06 05:00:00 4.5 3 Sudoeste 10 Oeste 0 -- -- 74
2019-06-06 04:00:00 4.5 7 Oeste 14 Oeste 0 -- -- 76
2019-06-06 03:00:00 4.8 6 Oeste 14 Oeste 0 -- -- 75
2019-06-06 02:00:00 5.7 8 Oeste 13 Oeste 0 -- -- 71
2019-06-06 01:00:00 7.2 8 Oeste 19 Oeste 0 -- -- 64
2019-06-06 00:00:00 9.1 11 Oeste 23 Oeste 0 -- -- 58
2019-06-05 23:00:00 10.2 21 Sudoeste 30 Sudoeste 0 -- -- 55
2019-06-05 22:00:00 11.2 12 Oeste 17 Oeste 0 -- -- 50
2019-06-05 21:00:00 12.2 10 Oeste 25 Oeste 0 -- -- 44
2019-06-05 20:00:00 13.2 8 Oeste 26 Sudoeste 0 -- -- 40
2019-06-05 19:00:00 14.5 21 Oeste 32 Oeste 0 -- -- 36
2019-06-05 18:00:00 14.8 21 Oeste 39 Oeste 0 -- -- 37
2019-06-05 17:00:00 14 20 Oeste 46 Oeste 0 -- -- 39
2019-06-05 16:00:00 14.7 22 Oeste 37 Oeste 0 -- -- 38
2019-06-05 15:00:00 14.3 20 Noroeste 40 Oeste 0 -- -- 39
2019-06-05 14:00:00 13.7 26 Oeste 41 Noroeste 0 -- -- 46
2019-06-05 13:00:00 12.2 20 Oeste 39 Sudoeste 0 -- -- 47
2019-06-05 12:00:00 10 24 Oeste 39 Oeste 0 -- -- 58
2019-06-05 11:00:00 8.3 26 Oeste 39 Oeste 0 -- -- 66
2019-06-05 10:00:00 7.5 18 Oeste 40 Oeste 0 -- -- 71
2019-06-05 09:00:00 6.4 21 Oeste 34 Oeste 0 -- -- 78
2019-06-05 08:00:00 6.4 19 Oeste 36 Oeste 0 -- -- 77
2019-06-05 07:00:00 6.3 23 Oeste 33 Oeste 0 -- -- 78
2019-06-05 06:00:00 6.5 17 Oeste 32 Oeste 0 -- -- 82
2019-06-05 05:00:00 7 13 Oeste 35 Sudoeste 0 -- -- 81
2019-06-05 04:00:00 7.9 13 Oeste 31 Oeste 0 -- -- 82
2019-06-05 03:00:00 8.8 19 Oeste 35 Oeste 0 -- -- 76
2019-06-05 02:00:00 10.5 23 Oeste 38 Oeste 0 -- -- 64
2019-06-05 01:00:00 11.4 10 Oeste 31 Oeste 0 -- -- 66
2019-06-05 00:00:00 12.5 17 Oeste 26 Oeste 0 -- -- 67
2019-06-04 23:00:00 12.5 10 Oeste 24 Oeste 0 -- -- 75
2019-06-04 22:00:00 13.6 17 Oeste 35 Oeste 0 -- -- 72
2019-06-04 21:00:00 15.3 23 Oeste 37 Oeste 0 -- -- 65
2019-06-04 20:00:00 16.8 25 Oeste 40 Oeste 0 -- -- 60
2019-06-04 19:00:00 19.3 22 Oeste 44 Oeste 0 -- -- 43
2019-06-04 18:00:00 21 27 Oeste 48 Oeste 0 -- -- 41
2019-06-04 17:00:00 20.6 32 Oeste 48 Oeste 0 -- -- 43
2019-06-04 16:00:00 22.1 29 Oeste 46 Oeste 0 -- -- 43
2019-06-04 15:00:00 22.9 26 Oeste 41 Oeste 0 -- -- 40
2019-06-04 14:00:00 22.9 27 Oeste 43 Oeste 0 -- -- 36
2019-06-04 13:00:00 21.9 28 Oeste 41 Oeste 0 -- -- 40
2019-06-04 12:00:00 20.3 27 Oeste 39 Oeste 0 -- -- 45
2019-06-04 11:00:00 19.2 13 Noroeste 22 Oeste 0 -- -- 51
2019-06-04 10:00:00 18.1 3 Norte 9 Nordeste 0 -- -- 46
2019-06-04 09:00:00 15.4 5 Norte 23 Oeste 0 -- -- 55
2019-06-04 08:00:00 15.2 14 Oeste 27 Oeste 0 -- -- 61
2019-06-04 07:00:00 13.6 16 Oeste 31 Oeste 0 -- -- 62
2019-06-04 06:00:00 14.1 16 Oeste 20 Oeste 0 -- -- 59
2019-06-04 05:00:00 13.6 0 Calma 6 Noroeste 0 -- -- 56
2019-06-04 04:00:00 13.2 3 Sudoeste 19 Sudoeste 0 -- -- 58
2019-06-04 03:00:00 14.2 0 Calma 13 Este 0 -- -- 57
2019-06-04 02:00:00 15.1 5 Este 10 Este 0 -- -- 51
2019-06-04 01:00:00 16.8 3 Este 6 Este 0 -- -- 41
2019-06-04 00:00:00 18.6 3 Sudeste 25 Sudoeste 0 -- -- 37
2019-06-03 23:00:00 20.7 18 Sudoeste 31 Sudoeste 0 -- -- 33
2019-06-03 22:00:00 21.3 12 Sudoeste 25 Sudoeste 0 -- -- 28
2019-06-03 21:00:00 24 10 Sudoeste 32 Sudoeste 0 -- -- 25
2019-06-03 20:00:00 25.4 19 Sur 36 Sur 0 -- -- 22
2019-06-03 19:00:00 26.6 21 Sudoeste 41 Sudoeste 0 -- -- 21
2019-06-03 18:00:00 27.1 27 Sudoeste 46 Sudoeste 0 -- -- 18
2019-06-03 17:00:00 28 22 Sudoeste 51 Oeste 0 -- -- 19
2019-06-03 16:00:00 27.6 30 Oeste 52 Oeste 0 -- -- 18
2019-06-03 15:00:00 27.8 30 Sudoeste 54 Oeste 0 -- -- 16
2019-06-03 14:00:00 27.3 29 Oeste 46 Oeste 0 -- -- 17
2019-06-03 13:00:00 26.1 26 Oeste 39 Oeste 0 -- -- 21
2019-06-03 12:00:00 25.1 21 Oeste 31 Oeste 0 -- -- 20
2019-06-03 11:00:00 22.7 4 Oeste 12 Noroeste 0 -- -- 33
2019-06-03 10:00:00 20.8 6 Nordeste 10 Nordeste 0 -- -- 39
2019-06-03 09:00:00 17.2 6 Oeste 11 Oeste 0 -- -- 53
2019-06-03 08:00:00 15.2 0 Calma 6 Oeste 0 -- -- 53
2019-06-03 07:00:00 14.5 0 Calma 6 Oeste 0 -- -- 54
2019-06-03 06:00:00 14.4 0 Calma 9 Sur 0 -- -- 54
2019-06-03 05:00:00 15.3 2 Sur 10 Sur 0 -- -- 49
2019-06-03 04:00:00 16.5 7 Sudoeste 10 Sur 0 -- -- 46
2019-06-03 03:00:00 16.4 4 Sur 8 Sur 0 -- -- 47
2019-06-03 02:00:00 17.8 4 Sur 7 Sur 0 -- -- 42
2019-06-03 01:00:00 18.3 8 Oeste 19 Oeste 0 -- -- 41
2019-06-03 00:00:00 20.6 13 Oeste 36 Oeste 0 -- -- 34
2019-06-02 23:00:00 20.9 9 Oeste 24 Sudoeste 0 -- -- 36
2019-06-02 22:00:00 23.4 14 Sudoeste 27 Sudoeste 0 -- -- 29
2019-06-02 21:00:00 24.2 19 Sudoeste 36 Oeste 0 -- -- 28
2019-06-02 20:00:00 25.3 23 Oeste 38 Oeste 0 -- -- 25
2019-06-02 19:00:00 27 23 Oeste 40 Oeste 0 -- -- 26
2019-06-02 18:00:00 27.1 26 Oeste 44 Oeste 0 -- -- 27
2019-06-02 17:00:00 29 19 Oeste 37 Oeste 0 -- -- 25
2019-06-02 16:00:00 28.7 22 Oeste 40 Oeste 0 -- -- 25
2019-06-02 15:00:00 27.7 15 Noroeste 38 Oeste 0 -- -- 24
2019-06-02 14:00:00 28.2 19 Noroeste 36 Oeste 0 -- -- 25
2019-06-02 13:00:00 27.9 17 Oeste 31 Oeste 0 -- -- 26
2019-06-02 12:00:00 26.5 8 Noroeste 14 Noroeste 0 -- -- 26
2019-06-02 11:00:00 25.8 3 Norte 9 Norte 0 -- -- 25
2019-06-02 10:00:00 24.1 3 Nordeste 6 Nordeste 0 -- -- 29
2019-06-02 09:00:00 20.8 2 Este 4 Nordeste 0 -- -- 40
2019-06-02 08:00:00 17.3 4 Oeste 10 Sudoeste 0 -- -- 41
2019-06-02 07:00:00 15.7 8 Sudoeste 12 Sudoeste 0 -- -- 43
2019-06-02 06:00:00 15.5 0 Calma 5 Oeste 0 -- -- 44
2019-06-02 05:00:00 16.9 8 Sur 13 Sudoeste 0 -- -- 45
2019-06-02 04:00:00 17 2 Este 12 Sudoeste 0 -- -- 45
2019-06-02 03:00:00 19.8 7 Sudoeste 27 Sudoeste 0 -- -- 37
2019-06-02 02:00:00 21.3 16 Oeste 37 Sudoeste 0 -- -- 37
2019-06-02 01:00:00 21.8 22 Oeste 34 Sudoeste 0 -- -- 33
2019-06-02 00:00:00 23.8 21 Sudoeste 34 Sudoeste 0 -- -- 28
2019-06-01 23:00:00 22.8 12 Oeste 30 Sudoeste 0 -- -- 29
2019-06-01 22:00:00 24.2 19 Sudoeste 30 Sudoeste 0 -- -- 29
2019-06-01 21:00:00 25.4 11 Sudoeste 20 Oeste 0 -- -- 29
2019-06-01 20:00:00 27.9 7 Noroeste 23 Noroeste 0 -- -- 24
2019-06-01 19:00:00 28.7 17 Noroeste 26 Noroeste 0 -- -- 20
2019-06-01 18:00:00 29.4 5 Noroeste 24 Oeste 0 -- -- 20
2019-06-01 17:00:00 29.3 8 Este 21 Oeste 0 -- -- 21
2019-06-01 16:00:00 29.6 6 Sudoeste 22 Oeste 0 -- -- 20
2019-06-01 15:00:00 29 10 Oeste 25 Sudoeste 0 -- -- 22
2019-06-01 14:00:00 28.3 6 Noroeste 30 Noroeste 0 -- -- 21
2019-06-01 13:00:00 27.9 8 Noroeste 16 Sudoeste 0 -- -- 21
2019-06-01 12:00:00 27.3 7 Oeste 20 Oeste 0 -- -- 24
2019-06-01 11:00:00 25.8 13 Oeste 18 Oeste 0 -- -- 27
2019-06-01 10:00:00 22.7 3 Este 6 Este 0 -- -- 29
2019-06-01 09:00:00 19.3 0 Calma 3 Nordeste 0 -- -- 39
2019-06-01 08:00:00 16.3 0 Calma 6 Oeste 0 -- -- 41
2019-06-01 07:00:00 11.2 5 Oeste 8 Oeste 0 -- -- 45
2019-06-01 06:00:00 12.6 7 Este 17 Este 0 -- -- 43
2019-06-01 05:00:00 15 0 Calma 5 Oeste 0 -- -- 35
2019-06-01 04:00:00 15.2 2 Sudeste 6 Sudoeste 0 -- -- 33
2019-06-01 03:00:00 16.4 4 Sudeste 14 Sur 0 -- -- 31
2019-06-01 02:00:00 16.6 8 Sur 14 Sur 0 -- -- 31
2019-06-01 01:00:00 16.3 4 Sur 8 Sudoeste 0 -- -- 30
2019-06-01 00:00:00 18 0 Calma 18 Sur 0 -- -- 30
2019-05-31 23:00:00 20.2 14 Sur 20 Sudoeste 0 -- -- 26
2019-05-31 22:00:00 21.6 12 Sur 16 Sur 0 -- -- 26
2019-05-31 21:00:00 25 8 Noroeste 20 Norte 0 -- -- 22
2019-05-31 20:00:00 26.7 13 Noroeste 28 Norte 0 -- -- 21
2019-05-31 19:00:00 27.3 8 Norte 23 Noroeste 0 -- -- 21
2019-05-31 18:00:00 28.1 9 Noroeste 21 Noroeste 0 -- -- 21
2019-05-31 17:00:00 28.2 17 Norte 27 Oeste 0 -- -- 20
2019-05-31 16:00:00 28 9 Nordeste 20 Norte 0 -- -- 22
2019-05-31 15:00:00 27.5 6 Nordeste 23 Nordeste 0 -- -- 22
2019-05-31 14:00:00 26.6 8 Nordeste 20 Nordeste 0 -- -- 22
2019-05-31 13:00:00 26.1 7 Este 17 Nordeste 0 -- -- 23
2019-05-31 12:00:00 25.4 8 Este 15 Este 0 -- -- 24
2019-05-31 11:00:00 23.4 4 Este 8 Nordeste 0 -- -- 31
2019-05-31 10:00:00 21 3 Noroeste 6 Oeste 0 -- -- 35
2019-05-31 09:00:00 18.2 2 Nordeste 4 Este 0 -- -- 43
2019-05-31 08:00:00 15.1 3 Sudeste 8 Sur 0 -- -- 46
2019-05-31 07:00:00 13.3 4 Sudoeste 9 Sur 0 -- -- 46
2019-05-31 06:00:00 13 0 Calma 9 Sur 0 -- -- 46
2019-05-31 05:00:00 14 4 Oeste 10 Sur 0 -- -- 43
2019-05-31 04:00:00 14.1 3 Sur 7 Sur 0 -- -- 42
2019-05-31 03:00:00 13.6 2 Noroeste 14 Sur 0 -- -- 46
2019-05-31 02:00:00 15.9 5 Sudoeste 14 Sudoeste 0 -- -- 41
2019-05-31 01:00:00 17.4 8 Sur 15 Sudeste 0 -- -- 38
2019-05-31 00:00:00 18 10 Sudeste 16 Sur 0 -- -- 35
2019-05-30 23:00:00 18.4 12 Sur 17 Sudoeste 0 -- -- 29
2019-05-30 22:00:00 20.3 8 Sudoeste 14 Norte 0 -- -- 27
2019-05-30 21:00:00 23.2 9 Norte 22 Norte 0 -- -- 22
2019-05-30 20:00:00 24.8 15 Norte 24 Norte 0 -- -- 22
2019-05-30 19:00:00 25.5 10 Nordeste 27 Norte 0 -- -- 21
2019-05-30 18:00:00 25.6 11 Norte 27 Nordeste 0 -- -- 20
2019-05-30 17:00:00 25.8 9 Este 27 Este 0 -- -- 20
2019-05-30 16:00:00 25.6 13 Este 25 Este 0 -- -- 20
2019-05-30 15:00:00 25.1 15 Este 25 Este 0 -- -- 22
2019-05-30 14:00:00 24.2 9 Este 23 Este 0 -- -- 24
2019-05-30 13:00:00 22.5 7 Nordeste 17 Nordeste 0 -- -- 29
2019-05-30 12:00:00 20.4 6 Nordeste 15 Nordeste 0 -- -- 33
2019-05-30 11:00:00 19.1 7 Este 15 Este 0 -- -- 36
2019-05-30 10:00:00 17.1 9 Este 14 Este 0 -- -- 41
2019-05-30 09:00:00 14.3 0 Calma 4 Nordeste 0 -- -- 49
2019-05-30 08:00:00 11.5 2 Sudeste 5 Nordeste 0 -- -- 58
2019-05-30 07:00:00 8.7 0 Calma 5 Oeste 0 -- -- 62
2019-05-30 06:00:00 7.8 0 Calma 5 Noroeste 0 -- -- 66
2019-05-30 05:00:00 7 2 Noroeste 8 Norte 0 -- -- 68
2019-05-30 04:00:00 9.2 2 Oeste 11 Oeste 0 -- -- 61
2019-05-30 03:00:00 10.2 3 Sur 9 Sur 0 -- -- 57
2019-05-30 02:00:00 10.7 4 Sur 6 Noroeste 0 -- -- 55
2019-05-30 01:00:00 11.4 3 Noroeste 12 Sur 0 -- -- 54
2019-05-30 00:00:00 12.8 10 Sur 15 Sur 0 -- -- 51
2019-05-29 23:00:00 14 4 Sur 10 Este 0 -- -- 48
2019-05-29 22:00:00 15.4 5 Este 22 Nordeste 0 -- -- 45
2019-05-29 21:00:00 17.8 13 Nordeste 27 Nordeste 0 -- -- 37
2019-05-29 20:00:00 19.7 14 Norte 27 Norte 0 -- -- 36
2019-05-29 19:00:00 20.5 11 Nordeste 24 Norte 0 -- -- 33
2019-05-29 18:00:00 20.8 13 Nordeste 27 Nordeste 0 -- -- 36
2019-05-29 17:00:00 20.7 13 Nordeste 26 Norte 0 -- -- 36
2019-05-29 16:00:00 20.3 12 Nordeste 27 Norte 0 -- -- 35
2019-05-29 15:00:00 19.3 12 Nordeste 28 Norte 0 -- -- 38
2019-05-29 14:00:00 18.4 9 Este 24 Este 0 -- -- 42
2019-05-29 13:00:00 17.5 10 Este 25 Nordeste 0 -- -- 43
2019-05-29 12:00:00 15.8 9 Este 21 Este 0 -- -- 45
2019-05-29 11:00:00 13.8 10 Este 23 Este 0 -- -- 47
2019-05-29 10:00:00 12.4 14 Este 25 Sudeste 0 -- -- 50
2019-05-29 09:00:00 9.5 5 Este 9 Nordeste 0 -- -- 61
2019-05-29 08:00:00 7.1 0 Calma 4 Este 0 -- -- 66
2019-05-29 07:00:00 4.5 2 Sudeste 7 Sur 0 -- -- 75
2019-05-29 06:00:00 4.6 0 Calma 9 Norte 0 -- -- 74
2019-05-29 05:00:00 5.5 0 Calma 8 Norte 0 -- -- 69
2019-05-29 04:00:00 6.9 0 Calma 9 Sur 0 -- -- 63
2019-05-29 03:00:00 9.1 4 Sur 14 Este 0 -- -- 54
2019-05-29 02:00:00 9.5 10 Sudeste 15 Sudeste 0 -- -- 53
2019-05-29 01:00:00 10.8 10 Sudeste 17 Sudeste 0 -- -- 58
2019-05-29 00:00:00 11.5 3 Sudeste 11 Este 0 -- -- 55
2019-05-28 23:00:00 13.4 5 Sur 8 Sur 0 -- -- 49
2019-05-28 22:00:00 15 2 Oeste 16 Norte 0 -- -- 43
2019-05-28 21:00:00 17.3 10 Norte 23 Norte 0 -- -- 38
2019-05-28 20:00:00 18.7 19 Noroeste 31 Norte 0 -- -- 34
2019-05-28 19:00:00 19.4 21 Noroeste 34 Norte 0 -- -- 31
2019-05-28 18:00:00 20.1 19 Noroeste 32 Noroeste 0 -- -- 30
2019-05-28 17:00:00 20.1 22 Noroeste 31 Noroeste 0 -- -- 29
2019-05-28 16:00:00 20.2 12 Noroeste 24 Norte 0 -- -- 27
2019-05-28 15:00:00 19.1 10 Norte 34 Norte 0 -- -- 27
2019-05-28 14:00:00 18.3 11 Norte 18 Nordeste 0 -- -- 28
2019-05-28 13:00:00 17 12 Norte 23 Nordeste 0 -- -- 31
2019-05-28 12:00:00 16.8 13 Nordeste 21 Este 0 -- -- 33
2019-05-28 11:00:00 15.7 5 Nordeste 12 Nordeste 0 -- -- 50
2019-05-28 10:00:00 13.8 4 Este 9 Nordeste 0 -- -- 66
2019-05-28 09:00:00 10.8 3 Norte 6 Norte 0 -- -- 76
2019-05-28 08:00:00 9.1 4 Sudeste 8 Sur 0 -- -- 80
2019-05-28 07:00:00 8.7 4 Sur 7 Sur 0 -- -- 84
2019-05-28 06:00:00 9.1 5 Sudoeste 8 Sur 0 -- -- 81
2019-05-28 05:00:00 9.2 0 Calma 7 Noroeste 0 -- -- 78
2019-05-28 04:00:00 10.2 0 Calma 8 Este 0 -- -- 74
2019-05-28 03:00:00 10.7 2 Este 7 Este 0 -- -- 68
2019-05-28 02:00:00 13.3 4 Sur 10 Sudeste 0 -- -- 61
2019-05-28 01:00:00 12.7 10 Sur 17 Sur 0 -- -- 59
2019-05-28 00:00:00 15.5 12 Sur 15 Sur 0 -- -- 50
2019-05-27 23:00:00 16.2 8 Sur 10 Sudoeste 0 -- -- 49
2019-05-27 22:00:00 17.2 4 Sudoeste 13 Norte 0 -- -- 47
2019-05-27 21:00:00 19.5 10 Norte 26 Noroeste 0 -- -- 40
2019-05-27 20:00:00 21.4 14 Norte 31 Noroeste 0 -- -- 36
2019-05-27 19:00:00 22 15 Noroeste 28 Noroeste 0 -- -- 35
2019-05-27 18:00:00 22.2 12 Noroeste 28 Noroeste 0 -- -- 36
2019-05-27 17:00:00 22.6 16 Noroeste 34 Noroeste 0 -- -- 35
2019-05-27 16:00:00 21.8 20 Noroeste 33 Noroeste 0 -- -- 36
2019-05-27 15:00:00 22.3 13 Noroeste 24 Noroeste 0 -- -- 36
2019-05-27 14:00:00 21.7 12 Norte 27 Noroeste 0 -- -- 39
2019-05-27 13:00:00 20.9 6 Este 18 Nordeste 0 -- -- 41
2019-05-27 12:00:00 20.2 6 Este 21 Este 0 -- -- 40
2019-05-27 11:00:00 19.2 9 Nordeste 18 Nordeste 0 -- -- 43
2019-05-27 10:00:00 18.7 3 Este 8 Nordeste 0 -- -- 44
2019-05-27 09:00:00 16.2 2 Noroeste 6 Oeste 0 -- -- 56
2019-05-27 08:00:00 14 0 Calma 13 Sur 0 -- -- 60
2019-05-27 07:00:00 10.5 2 Oeste 11 Sur 0 -- -- 69
2019-05-27 06:00:00 10.7 9 Oeste 9 Oeste 0 -- -- 70
2019-05-27 05:00:00 10.9 0 Calma 8 Sur 0 -- -- 68
2019-05-27 04:00:00 11.6 2 Sudoeste 8 Sur 0 -- -- 65
2019-05-27 03:00:00 11.9 0 Calma 12 Sur 0 -- -- 64
2019-05-27 02:00:00 12.1 2 Oeste 7 Sudoeste 0 -- -- 63
2019-05-27 01:00:00 12.9 5 Oeste 8 Sur 0 -- -- 60
2019-05-27 00:00:00 14.2 4 Sudeste 14 Sur 0 -- -- 55
2019-05-26 23:00:00 15.6 11 Sur 14 Sur 0 -- -- 51
2019-05-26 22:00:00 16.9 7 Sur 20 Norte 0 -- -- 48
2019-05-26 21:00:00 19.3 12 Norte 25 Norte 0 -- -- 42
2019-05-26 20:00:00 20.8 15 Norte 28 Norte 0 -- -- 37
2019-05-26 19:00:00 21.4 18 Norte 33 Noroeste 0 -- -- 35
2019-05-26 18:00:00 21.6 19 Norte 37 Norte 0 -- -- 36
2019-05-26 17:00:00 21.3 20 Norte 36 Noroeste 0 -- -- 37
2019-05-26 16:00:00 20.5 18 Norte 34 Norte 0 -- -- 38
2019-05-26 15:00:00 19.7 17 Norte 28 Norte 0 -- -- 40
2019-05-26 14:00:00 18.4 10 Norte 24 Norte 0 -- -- 45
2019-05-26 13:00:00 17.7 7 Norte 21 Norte 0 -- -- 49
2019-05-26 12:00:00 17.3 4 Sudeste 19 Norte 0 -- -- 50
2019-05-26 11:00:00 15.4 6 Noroeste 19 Noroeste 0 -- -- 54
2019-05-26 10:00:00 14.1 5 Oeste 13 Oeste 0 -- -- 57
2019-05-26 09:00:00 10.9 0 Calma 6 Noroeste 0 -- -- 64
2019-05-26 08:00:00 8.7 3 Norte 5 Norte 0 -- -- 69
2019-05-26 07:00:00 7 3 Sur 6 Sur 0 -- -- 70
2019-05-26 06:00:00 7.5 5 Sudoeste 11 Sudeste 0 -- -- 66
2019-05-26 05:00:00 8 7 Sudeste 17 Este 0 -- -- 56
2019-05-26 04:00:00 9.4 10 Este 20 Este 0 -- -- 49
2019-05-26 03:00:00 9.5 6 Sur 12 Sudeste 0 -- -- 49
2019-05-26 02:00:00 9.7 0 Calma 10 Sur 0 -- -- 56
2019-05-26 01:00:00 10.5 9 Sur 13 Sur 0 -- -- 59
2019-05-26 00:00:00 11.5 3 Sudeste 8 Sudeste 0 -- -- 55
2019-05-25 23:00:00 12.7 4 Sur 9 Sur 0 -- -- 50
2019-05-25 22:00:00 13.9 2 Este 22 Norte 0 -- -- 50
2019-05-25 21:00:00 15.8 15 Norte 28 Norte 0 -- -- 43
2019-05-25 20:00:00 17.4 16 Norte 28 Norte 0 -- -- 39
2019-05-25 19:00:00 18.3 17 Norte 32 Nordeste 0 -- -- 38
2019-05-25 18:00:00 18.9 15 Norte 25 Nordeste 0 -- -- 38
2019-05-25 17:00:00 18.2 12 Norte 25 Nordeste 0 -- -- 40
2019-05-25 16:00:00 17.3 12 Nordeste 24 Nordeste 0 -- -- 41
2019-05-25 15:00:00 16.3 7 Nordeste 23 Nordeste 0 -- -- 46
2019-05-25 14:00:00 15 9 Nordeste 20 Norte 0 -- -- 50
2019-05-25 13:00:00 13.8 9 Nordeste 21 Nordeste 0 -- -- 54
2019-05-25 12:00:00 11.8 5 Este 18 Nordeste 0 -- -- 61
2019-05-25 11:00:00 9.8 6 Este 21 Nordeste 0 -- -- 69
2019-05-25 10:00:00 8.9 14 Nordeste 22 Nordeste 0 -- -- 74
2019-05-25 09:00:00 8.5 5 Nordeste 11 Nordeste 0 -- -- 78
2019-05-25 08:00:00 7.8 4 Nordeste 14 Nordeste 0 -- -- 80
2019-05-25 07:00:00 7.6 9 Nordeste 15 Nordeste 0 -- -- 82
2019-05-25 06:00:00 7.6 6 Este 14 Este 0 -- -- 84
2019-05-25 05:00:00 7.6 4 Nordeste 13 Este 0 -- -- 85
2019-05-25 04:00:00 7.9 5 Nordeste 9 Este 0 -- -- 81
2019-05-25 03:00:00 8.2 4 Este 10 Este 0 -- -- 78
2019-05-25 02:00:00 7.7 8 Este 13 Este 0 -- -- 77
2019-05-25 01:00:00 8.8 6 Norte 15 Este 0 -- -- 68
2019-05-25 00:00:00 9.7 0 Calma 10 Sudeste 0 -- -- 62
2019-05-24 23:00:00 10.5 4 Sur 8 Sur 0 -- -- 59
2019-05-24 22:00:00 11.7 5 Nordeste 22 Nordeste 0 -- -- 54
2019-05-24 21:00:00 14.2 15 Nordeste 27 Norte 0 -- -- 48
2019-05-24 20:00:00 16.2 21 Norte 38 Norte 0 -- -- 41
2019-05-24 19:00:00 17 23 Norte 35 Norte 0 -- -- 39
2019-05-24 18:00:00 18.4 20 Norte 39 Norte 0 -- -- 36
2019-05-24 17:00:00 18.6 19 Norte 34 Noroeste 0 -- -- 36
2019-05-24 16:00:00 18.5 17 Norte 31 Norte 0 -- -- 40
2019-05-24 15:00:00 16.6 9 Norte 26 Norte 0 -- -- 43
2019-05-24 14:00:00 16.4 14 Norte 23 Norte 0 -- -- 51
2019-05-24 13:00:00 14.4 7 Norte 15 Nordeste 0 -- -- 62
2019-05-24 12:00:00 13.1 4 Nordeste 15 Este 0 -- -- 68
2019-05-24 11:00:00 10.1 9 Este 15 Sudeste 0 -- -- 81
2019-05-24 10:00:00 9.2 10 Norte 25 Norte 0 -- -- 85
2019-05-24 09:00:00 11.5 9 Norte 17 Norte 0 -- -- 78
2019-05-24 08:00:00 10.7 3 Norte 13 Oeste 0 -- -- 82
2019-05-24 07:00:00 10 9 Oeste 15 Oeste 0 -- -- 76
2019-05-24 06:00:00 9.7 7 Oeste 15 Oeste 0 -- -- 75
2019-05-24 05:00:00 10.6 10 Oeste 22 Oeste 0 -- -- 71
2019-05-24 04:00:00 10.8 14 Oeste 21 Oeste 0 -- -- 71
2019-05-24 03:00:00 12.3 10 Oeste 26 Oeste 0 -- -- 63
2019-05-24 02:00:00 12.8 14 Oeste 32 Oeste 0 -- -- 65
2019-05-24 01:00:00 13.5 15 Oeste 32 Oeste 0 -- -- 67
2019-05-24 00:00:00 14.7 19 Oeste 34 Oeste 0 -- -- 64
2019-05-23 23:00:00 15.8 15 Sudoeste 24 Sudoeste 0 -- -- 48
2019-05-23 22:00:00 17.1 19 Sudoeste 30 Sudoeste 0 -- -- 41
2019-05-23 21:00:00 18.8 13 Oeste 31 Noroeste 0 -- -- 41
2019-05-23 20:00:00 20.9 19 Oeste 29 Oeste 0 -- -- 43
2019-05-23 19:00:00 22.1 19 Oeste 32 Oeste 0 -- -- 36
2019-05-23 18:00:00 23.4 17 Oeste 35 Oeste 0 -- -- 27
2019-05-23 17:00:00 23.7 18 Oeste 37 Noroeste 0 -- -- 27
2019-05-23 16:00:00 23.7 25 Oeste 60 Oeste 0 -- -- 25
2019-05-23 15:00:00 23.1 23 Oeste 37 Oeste 0 -- -- 28
2019-05-23 14:00:00 22.8 20 Oeste 43 Oeste 0 -- -- 30
2019-05-23 13:00:00 22.5 26 Oeste 44 Oeste 0 -- -- 31
2019-05-23 12:00:00 21.7 9 Oeste 24 Oeste 0 -- -- 40
2019-05-23 11:00:00 18 6 Nordeste 10 Norte 0 -- -- 55
2019-05-23 10:00:00 15.7 0 Calma 5 Este 0 -- -- 64
2019-05-23 09:00:00 13.8 0 Calma 5 Sur 0 -- -- 70
2019-05-23 08:00:00 11.7 4 Sur 8 Sur 0 -- -- 71
2019-05-23 07:00:00 11.3 0 Calma 8 Sur 0 -- -- 67
2019-05-23 06:00:00 12.1 2 Sudeste 12 Oeste 0 -- -- 69
2019-05-23 05:00:00 12.4 5 Oeste 11 Oeste 0 -- -- 72
2019-05-23 04:00:00 13.1 7 Oeste 32 Oeste 0 -- -- 69
2019-05-23 03:00:00 15 24 Oeste 33 Oeste 0 -- -- 62
2019-05-23 02:00:00 13 0 Calma 8 Sudoeste 0 -- -- 55
2019-05-23 01:00:00 16.6 7 Sudoeste 19 Sudoeste 0 -- -- 43
2019-05-23 00:00:00 16.6 13 Sudoeste 28 Oeste 0 -- -- 45
2019-05-22 23:00:00 18 22 Sudoeste 33 Sudoeste 0 -- -- 40
2019-05-22 22:00:00 18.4 18 Sudoeste 29 Sudoeste 0 -- -- 39
2019-05-22 21:00:00 20.3 14 Oeste 24 Sudoeste 0 -- -- 39
2019-05-22 20:00:00 20.9 12 Oeste 21 Sudoeste 0 -- -- 38
2019-05-22 19:00:00 22.1 9 Oeste 22 Oeste 0 -- -- 35
2019-05-22 18:00:00 22.4 13 Noroeste 22 Oeste 0 -- -- 31
2019-05-22 17:00:00 23.5 7 Oeste 20 Oeste 0 -- -- 30
2019-05-22 16:00:00 24 9 Oeste 18 Noroeste 0 -- -- 29
2019-05-22 15:00:00 21.6 11 Noroeste 21 Noroeste 0 -- -- 32
2019-05-22 14:00:00 21.9 5 Sur 20 Noroeste 0 -- -- 32
2019-05-22 13:00:00 21.2 9 Noroeste 21 Oeste 0 -- -- 35
2019-05-22 12:00:00 20.2 8 Noroeste 17 Noroeste 0 -- -- 35
2019-05-22 11:00:00 19.9 6 Este 11 Nordeste 0 -- -- 35
2019-05-22 10:00:00 17.8 3 Nordeste 7 Este 0 -- -- 42
2019-05-22 09:00:00 14.9 0 Calma 5 Oeste 0 -- -- 52
2019-05-22 08:00:00 10.6 2 Sudoeste 10 Oeste 0 -- -- 62
2019-05-22 07:00:00 7.1 5 Oeste 6 Oeste 0 -- -- 68
2019-05-22 06:00:00 8.8 0 Calma 4 Oeste 0 -- -- 63
2019-05-22 05:00:00 9.6 5 Sudoeste 10 Sur 0 -- -- 59
2019-05-22 04:00:00 9.4 4 Sudoeste 11 Sur 0 -- -- 61
2019-05-22 03:00:00 10.2 8 Sudoeste 13 Sudoeste 0 -- -- 56
2019-05-22 02:00:00 10.8 9 Sur 15 Sur 0 -- -- 55
2019-05-22 01:00:00 11.9 4 Este 14 Sur 0 -- -- 51
2019-05-22 00:00:00 13 12 Sur 16 Sur 0 -- -- 47